sensor_id;sensor_type;location;lat;lon;timestamp;temperature;humidity
2489;DHT22;1255;48.716;9.124;2022-12-01T00:00:58;3.60;99.90
2489;DHT22;1255;48.716;9.124;2022-12-01T00:03:25;3.50;99.90
2489;DHT22;1255;48.716;9.124;2022-12-01T00:05:58;3.50;99.90
2489;DHT22;1255;48.716;9.124;2022-12-01T00:08:26;3.50;99.90
2489;DHT22;1255;48.716;9.124;2022-12-01T00:10:53;3.50;99.90
2489;DHT22;1255;48.716;9.124;2022-12-01T00:13:19;3.50;99.90
2489;DHT22;1255;48.716;9.124;2022-12-01T00:15:45;3.40;99.90
2489;DHT22;1255;48.716;9.124;2022-12-01T00:18:14;3.40;99.90
2489;DHT22;1255;48.716;9.124;2022-12-01T00:20:40;3.40;99.90
2489;DHT22;1255;48.716;9.124;2022-12-01T00:23:07;3.40;99.90
2489;DHT22;1255;48.716;9.124;2022-12-01T00:25:34;3.40;99.90
2489;DHT22;1255;48.716;9.124;2022-12-01T00:28:00;3.40;99.90
2489;DHT22;1255;48.716;9.124;2022-12-01T00:30:27;3.40;99.90
2489;DHT22;1255;48.716;9.124;2022-12-01T00:32:54;3.40;99.90
2489;DHT22;1255;48.716;9.124;2022-12-01T00:35:22;3.30;99.90
2489;DHT22;1255;48.716;9.124;2022-12-01T00:37:49;3.30;99.90
2489;DHT22;1255;48.716;9.124;2022-12-01T00:40:16;3.30;99.90
2489;DHT22;1255;48.716;9.124;2022-12-01T00:42:42;3.30;99.90
2489;DHT22;1255;48.716;9.124;2022-12-01T00:45:10;3.30;99.90
2489;DHT22;1255;48.716;9.124;2022-12-01T00:47:37;3.30;99.90
2489;DHT22;1255;48.716;9.124;2022-12-01T00:50:04;3.40;99.90
2489;DHT22;1255;48.716;9.124;2022-12-01T00:52:32;3.40;99.90
2489;DHT22;1255;48.716;9.124;2022-12-01T00:54:59;3.30;99.90
2489;DHT22;1255;48.716;9.124;2022-12-01T00:57:26;3.30;99.90
2489;DHT22;1255;48.716;9.124;2022-12-01T00:59:53;3.30;99.90
2489;DHT22;1255;48.716;9.124;2022-12-01T01:02:19;3.30;99.90
2489;DHT22;1255;48.716;9.124;2022-12-01T01:04:46;3.30;99.90
2489;DHT22;1255;48.716;9.124;2022-12-01T01:07:13;3.30;99.90
2489;DHT22;1255;48.716;9.124;2022-12-01T01:09:41;3.30;99.90
2489;DHT22;1255;48.716;9.124;2022-12-01T01:12:08;3.40;99.90
2489;DHT22;1255;48.716;9.124;2022-12-01T01:14:34;3.40;99.90
2489;DHT22;1255;48.716;9.124;2022-12-01T01:17:01;3.40;99.90
2489;DHT22;1255;48.716;9.124;2022-12-01T01:19:28;3.40;99.90
2489;DHT22;1255;48.716;9.124;2022-12-01T01:21:55;3.30;99.90
2489;DHT22;1255;48.716;9.124;2022-12-01T01:24:21;3.40;99.90
2489;DHT22;1255;48.716;9.124;2022-12-01T01:26:49;3.40;99.90
2489;DHT22;1255;48.716;9.124;2022-12-01T01:29:16;3.40;99.90
2489;DHT22;1255;48.716;9.124;2022-12-01T01:31:43;3.40;99.90
2489;DHT22;1255;48.716;9.124;2022-12-01T01:34:09;3.40;99.90
2489;DHT22;1255;48.716;9.124;2022-12-01T01:36:36;3.40;99.90
2489;DHT22;1255;48.716;9.124;2022-12-01T01:39:03;3.40;99.90
2489;DHT22;1255;48.716;9.124;2022-12-01T01:41:30;3.30;99.90
2489;DHT22;1255;48.716;9.124;2022-12-01T01:43:59;3.30;99.90
2489;DHT22;1255;48.716;9.124;2022-12-01T01:46:28;3.30;99.90
2489;DHT22;1255;48.716;9.124;2022-12-01T01:48:57;3.30;99.90
2489;DHT22;1255;48.716;9.124;2022-12-01T01:51:28;3.30;99.90
2489;DHT22;1255;48.716;9.124;2022-12-01T01:54:01;3.30;99.90
2489;DHT22;1255;48.716;9.124;2022-12-01T01:56:29;3.30;99.90
2489;DHT22;1255;48.716;9.124;2022-12-01T01:58:58;3.20;99.90
2489;DHT22;1255;48.716;9.124;2022-12-01T02:01:25;3.20;99.90
2489;DHT22;1255;48.716;9.124;2022-12-01T02:03:53;3.10;99.90
2489;DHT22;1255;48.716;9.124;2022-12-01T02:06:22;3.20;99.90
2489;DHT22;1255;48.716;9.124;2022-12-01T02:08:49;3.20;99.90
2489;DHT22;1255;48.716;9.124;2022-12-01T02:11:44;3.10;99.90
2489;DHT22;1255;48.716;9.124;2022-12-01T02:17:27;3.20;99.90
2489;DHT22;1255;48.716;9.124;2022-12-01T02:20:42;3.10;99.90
2489;DHT22;1255;48.716;9.124;2022-12-01T02:23:35;3.10;99.90
2489;DHT22;1255;48.716;9.124;2022-12-01T02:26:20;3.10;99.90
2489;DHT22;1255;48.716;9.124;2022-12-01T02:29:09;3.00;99.90
2489;DHT22;1255;48.716;9.124;2022-12-01T02:31:49;3.00;99.90
2489;DHT22;1255;48.716;9.124;2022-12-01T02:34:24;3.00;99.90
2489;DHT22;1255;48.716;9.124;2022-12-01T02:36:56;3.00;99.90
2489;DHT22;1255;48.716;9.124;2022-12-01T02:39:29;3.00;99.90
2489;DHT22;1255;48.716;9.124;2022-12-01T02:42:02;3.00;99.90
2489;DHT22;1255;48.716;9.124;2022-12-01T02:44:34;3.00;99.90
2489;DHT22;1255;48.716;9.124;2022-12-01T02:47:08;3.00;99.90
2489;DHT22;1255;48.716;9.124;2022-12-01T02:49:41;3.00;99.90
2489;DHT22;1255;48.716;9.124;2022-12-01T02:52:09;3.00;99.90
2489;DHT22;1255;48.716;9.124;2022-12-01T02:54:37;2.90;99.90
2489;DHT22;1255;48.716;9.124;2022-12-01T02:57:05;3.00;99.90
2489;DHT22;1255;48.716;9.124;2022-12-01T02:59:31;3.10;99.90
2489;DHT22;1255;48.716;9.124;2022-12-01T03:02:05;3.00;99.90
2489;DHT22;1255;48.716;9.124;2022-12-01T03:04:43;3.10;99.90
2489;DHT22;1255;48.716;9.124;2022-12-01T03:07:21;3.10;99.90
2489;DHT22;1255;48.716;9.124;2022-12-01T03:09:58;3.10;99.90
2489;DHT22;1255;48.716;9.124;2022-12-01T03:12:36;3.10;99.90
2489;DHT22;1255;48.716;9.124;2022-12-01T03:15:09;3.00;99.90
2489;DHT22;1255;48.716;9.124;2022-12-01T03:17:43;3.00;99.90
2489;DHT22;1255;48.716;9.124;2022-12-01T03:20:15;2.90;99.90
2489;DHT22;1255;48.716;9.124;2022-12-01T03:22:48;2.90;99.90
2489;DHT22;1255;48.716;9.124;2022-12-01T03:25:16;2.90;99.90
2489;DHT22;1255;48.716;9.124;2022-12-01T03:27:45;2.90;99.90
2489;DHT22;1255;48.716;9.124;2022-12-01T03:30:15;2.90;99.90
2489;DHT22;1255;48.716;9.124;2022-12-01T03:32:46;3.00;99.90
2489;DHT22;1255;48.716;9.124;2022-12-01T03:35:17;3.00;99.90
2489;DHT22;1255;48.716;9.124;2022-12-01T03:37:48;2.90;99.90
2489;DHT22;1255;48.716;9.124;2022-12-01T03:40:18;2.80;99.90
2489;DHT22;1255;48.716;9.124;2022-12-01T03:42:50;2.70;99.90
2489;DHT22;1255;48.716;9.124;2022-12-01T03:45:23;2.70;99.90
2489;DHT22;1255;48.716;9.124;2022-12-01T03:47:53;2.80;99.90
2489;DHT22;1255;48.716;9.124;2022-12-01T03:50:20;2.80;99.90
2489;DHT22;1255;48.716;9.124;2022-12-01T03:52:59;2.80;99.90
2489;DHT22;1255;48.716;9.124;2022-12-01T03:55:34;2.80;99.90
2489;DHT22;1255;48.716;9.124;2022-12-01T03:58:06;2.80;99.90
2489;DHT22;1255;48.716;9.124;2022-12-01T04:00:35;2.80;99.90
2489;DHT22;1255;48.716;9.124;2022-12-01T04:03:04;2.80;99.90
2489;DHT22;1255;48.716;9.124;2022-12-01T04:05:32;2.70;99.90
2489;DHT22;1255;48.716;9.124;2022-12-01T04:07:59;2.70;99.90
2489;DHT22;1255;48.716;9.124;2022-12-01T04:10:26;2.70;99.90
2489;DHT22;1255;48.716;9.124;2022-12-01T04:12:53;2.80;99.90
2489;DHT22;1255;48.716;9.124;2022-12-01T04:15:24;2.80;99.90
2489;DHT22;1255;48.716;9.124;2022-12-01T04:17:51;2.80;99.90
2489;DHT22;1255;48.716;9.124;2022-12-01T04:20:20;2.80;99.90
2489;DHT22;1255;48.716;9.124;2022-12-01T04:22:47;2.80;99.90
2489;DHT22;1255;48.716;9.124;2022-12-01T04:25:14;2.70;99.90
2489;DHT22;1255;48.716;9.124;2022-12-01T04:27:40;2.70;99.90
2489;DHT22;1255;48.716;9.124;2022-12-01T04:30:08;2.80;99.90
2489;DHT22;1255;48.716;9.124;2022-12-01T04:32:37;2.80;99.90
2489;DHT22;1255;48.716;9.124;2022-12-01T04:35:05;2.70;99.90
2489;DHT22;1255;48.716;9.124;2022-12-01T04:37:33;2.70;99.90
2489;DHT22;1255;48.716;9.124;2022-12-01T04:40:00;2.70;99.90
2489;DHT22;1255;48.716;9.124;2022-12-01T04:42:27;2.70;99.90
2489;DHT22;1255;48.716;9.124;2022-12-01T04:44:54;2.70;99.90
2489;DHT22;1255;48.716;9.124;2022-12-01T04:47:20;2.70;99.90
2489;DHT22;1255;48.716;9.124;2022-12-01T04:49:47;2.70;99.90
2489;DHT22;1255;48.716;9.124;2022-12-01T04:52:14;2.70;99.90
2489;DHT22;1255;48.716;9.124;2022-12-01T04:54:42;2.70;99.90
2489;DHT22;1255;48.716;9.124;2022-12-01T04:57:09;2.70;99.90
2489;DHT22;1255;48.716;9.124;2022-12-01T04:59:36;2.70;99.90
2489;DHT22;1255;48.716;9.124;2022-12-01T05:02:02;2.70;99.90
2489;DHT22;1255;48.716;9.124;2022-12-01T05:04:29;2.70;99.90
2489;DHT22;1255;48.716;9.124;2022-12-01T05:06:58;2.70;99.90
2489;DHT22;1255;48.716;9.124;2022-12-01T05:09:25;2.70;99.90
2489;DHT22;1255;48.716;9.124;2022-12-01T05:11:53;2.70;99.90
2489;DHT22;1255;48.716;9.124;2022-12-01T05:14:19;2.70;99.90
2489;DHT22;1255;48.716;9.124;2022-12-01T05:16:46;2.70;99.90
2489;DHT22;1255;48.716;9.124;2022-12-01T05:19:13;2.70;99.90
2489;DHT22;1255;48.716;9.124;2022-12-01T05:21:57;2.70;99.90
2489;DHT22;1255;48.716;9.124;2022-12-01T05:24:24;2.70;99.90
2489;DHT22;1255;48.716;9.124;2022-12-01T05:26:50;2.70;99.90
2489;DHT22;1255;48.716;9.124;2022-12-01T05:29:27;2.80;99.90
2489;DHT22;1255;48.716;9.124;2022-12-01T05:31:54;2.70;99.90
2489;DHT22;1255;48.716;9.124;2022-12-01T05:34:20;2.70;99.90
2489;DHT22;1255;48.716;9.124;2022-12-01T05:36:47;2.70;99.90
2489;DHT22;1255;48.716;9.124;2022-12-01T05:39:14;2.80;99.90
2489;DHT22;1255;48.716;9.124;2022-12-01T05:41:40;2.70;99.90
2489;DHT22;1255;48.716;9.124;2022-12-01T05:44:07;2.80;99.90
2489;DHT22;1255;48.716;9.124;2022-12-01T05:46:35;2.80;99.90
2489;DHT22;1255;48.716;9.124;2022-12-01T05:49:02;2.80;99.90
2489;DHT22;1255;48.716;9.124;2022-12-01T05:51:29;2.90;99.90
2489;DHT22;1255;48.716;9.124;2022-12-01T05:53:57;2.80;99.90
2489;DHT22;1255;48.716;9.124;2022-12-01T05:56:24;2.80;99.90
2489;DHT22;1255;48.716;9.124;2022-12-01T05:58:51;2.90;99.90
2489;DHT22;1255;48.716;9.124;2022-12-01T06:01:18;2.90;99.90
2489;DHT22;1255;48.716;9.124;2022-12-01T06:03:46;2.80;99.90
2489;DHT22;1255;48.716;9.124;2022-12-01T06:06:13;2.80;99.90
2489;DHT22;1255;48.716;9.124;2022-12-01T06:08:39;2.80;99.90
2489;DHT22;1255;48.716;9.124;2022-12-01T06:11:06;2.80;99.90
2489;DHT22;1255;48.716;9.124;2022-12-01T06:13:33;2.80;99.90
2489;DHT22;1255;48.716;9.124;2022-12-01T06:16:01;2.70;99.90
2489;DHT22;1255;48.716;9.124;2022-12-01T06:18:30;2.70;99.90
2489;DHT22;1255;48.716;9.124;2022-12-01T06:20:58;2.70;99.90
2489;DHT22;1255;48.716;9.124;2022-12-01T06:23:25;2.70;99.90
2489;DHT22;1255;48.716;9.124;2022-12-01T06:25:52;2.70;99.90
2489;DHT22;1255;48.716;9.124;2022-12-01T06:28:19;2.60;99.90
2489;DHT22;1255;48.716;9.124;2022-12-01T06:30:45;2.60;99.90
2489;DHT22;1255;48.716;9.124;2022-12-01T06:33:12;2.60;99.90
2489;DHT22;1255;48.716;9.124;2022-12-01T06:35:39;2.60;99.90
2489;DHT22;1255;48.716;9.124;2022-12-01T06:38:07;2.60;99.90
2489;DHT22;1255;48.716;9.124;2022-12-01T06:40:34;2.60;99.90
2489;DHT22;1255;48.716;9.124;2022-12-01T06:43:01;2.60;99.90
2489;DHT22;1255;48.716;9.124;2022-12-01T06:45:29;2.70;99.90
2489;DHT22;1255;48.716;9.124;2022-12-01T06:47:56;2.70;99.90
2489;DHT22;1255;48.716;9.124;2022-12-01T06:50:23;2.80;99.90
2489;DHT22;1255;48.716;9.124;2022-12-01T06:52:50;2.80;99.90
2489;DHT22;1255;48.716;9.124;2022-12-01T06:55:19;2.70;99.90
2489;DHT22;1255;48.716;9.124;2022-12-01T06:57:46;2.60;99.90
2489;DHT22;1255;48.716;9.124;2022-12-01T07:00:14;2.60;99.90
2489;DHT22;1255;48.716;9.124;2022-12-01T07:02:40;2.70;99.90
2489;DHT22;1255;48.716;9.124;2022-12-01T07:05:08;2.60;99.90
2489;DHT22;1255;48.716;9.124;2022-12-01T07:07:35;2.60;99.90
2489;DHT22;1255;48.716;9.124;2022-12-01T07:10:02;2.60;99.90
2489;DHT22;1255;48.716;9.124;2022-12-01T07:12:31;2.60;99.90
2489;DHT22;1255;48.716;9.124;2022-12-01T07:14:58;2.70;99.90
2489;DHT22;1255;48.716;9.124;2022-12-01T07:17:24;2.60;99.90
2489;DHT22;1255;48.716;9.124;2022-12-01T07:19:51;2.70;99.90
2489;DHT22;1255;48.716;9.124;2022-12-01T07:22:18;2.70;99.90
2489;DHT22;1255;48.716;9.124;2022-12-01T07:24:45;2.70;99.90
2489;DHT22;1255;48.716;9.124;2022-12-01T07:27:11;2.70;99.90
2489;DHT22;1255;48.716;9.124;2022-12-01T07:29:40;2.70;99.90
2489;DHT22;1255;48.716;9.124;2022-12-01T07:32:06;2.70;99.90
2489;DHT22;1255;48.716;9.124;2022-12-01T07:34:33;2.70;99.90
2489;DHT22;1255;48.716;9.124;2022-12-01T07:37:00;2.70;99.90
2489;DHT22;1255;48.716;9.124;2022-12-01T07:39:26;2.70;99.90
2489;DHT22;1255;48.716;9.124;2022-12-01T07:41:53;2.70;99.90
2489;DHT22;1255;48.716;9.124;2022-12-01T07:44:20;2.70;99.90
2489;DHT22;1255;48.716;9.124;2022-12-01T07:46:50;2.70;99.90
2489;DHT22;1255;48.716;9.124;2022-12-01T07:49:17;2.70;99.90
2489;DHT22;1255;48.716;9.124;2022-12-01T07:51:44;2.70;99.90
2489;DHT22;1255;48.716;9.124;2022-12-01T07:54:11;2.70;99.90
2489;DHT22;1255;48.716;9.124;2022-12-01T07:56:39;2.80;99.90
2489;DHT22;1255;48.716;9.124;2022-12-01T07:59:08;2.70;99.90
2489;DHT22;1255;48.716;9.124;2022-12-01T08:01:35;2.70;99.90
2489;DHT22;1255;48.716;9.124;2022-12-01T08:04:06;2.70;99.90
2489;DHT22;1255;48.716;9.124;2022-12-01T08:06:33;2.70;99.90
2489;DHT22;1255;48.716;9.124;2022-12-01T08:08:59;2.80;99.90
2489;DHT22;1255;48.716;9.124;2022-12-01T08:11:27;2.80;99.90
2489;DHT22;1255;48.716;9.124;2022-12-01T08:13:57;2.80;99.90
2489;DHT22;1255;48.716;9.124;2022-12-01T08:16:24;2.80;99.90
2489;DHT22;1255;48.716;9.124;2022-12-01T08:18:52;2.80;99.90
2489;DHT22;1255;48.716;9.124;2022-12-01T08:21:22;2.80;99.90
2489;DHT22;1255;48.716;9.124;2022-12-01T08:23:52;2.80;99.90
2489;DHT22;1255;48.716;9.124;2022-12-01T08:26:21;2.80;99.90
2489;DHT22;1255;48.716;9.124;2022-12-01T08:28:49;2.80;99.90
2489;DHT22;1255;48.716;9.124;2022-12-01T08:31:18;2.80;99.90
2489;DHT22;1255;48.716;9.124;2022-12-01T08:33:48;2.80;99.90
2489;DHT22;1255;48.716;9.124;2022-12-01T08:36:16;2.90;99.90
2489;DHT22;1255;48.716;9.124;2022-12-01T08:38:46;2.80;99.90
2489;DHT22;1255;48.716;9.124;2022-12-01T08:41:14;2.80;99.90
2489;DHT22;1255;48.716;9.124;2022-12-01T08:43:41;2.80;99.90
2489;DHT22;1255;48.716;9.124;2022-12-01T08:46:09;2.80;99.90
2489;DHT22;1255;48.716;9.124;2022-12-01T08:48:37;2.80;99.90
2489;DHT22;1255;48.716;9.124;2022-12-01T08:51:05;2.80;99.90
2489;DHT22;1255;48.716;9.124;2022-12-01T08:53:33;2.80;99.90
2489;DHT22;1255;48.716;9.124;2022-12-01T08:56:04;2.80;99.90
2489;DHT22;1255;48.716;9.124;2022-12-01T08:58:31;2.80;99.90
2489;DHT22;1255;48.716;9.124;2022-12-01T09:01:02;2.80;99.90
2489;DHT22;1255;48.716;9.124;2022-12-01T09:03:29;2.80;99.90
2489;DHT22;1255;48.716;9.124;2022-12-01T09:06:02;2.80;99.90
2489;DHT22;1255;48.716;9.124;2022-12-01T09:08:29;2.80;99.90
2489;DHT22;1255;48.716;9.124;2022-12-01T09:11:02;2.80;99.90
2489;DHT22;1255;48.716;9.124;2022-12-01T09:13:30;2.70;99.90
2489;DHT22;1255;48.716;9.124;2022-12-01T09:15:58;2.70;99.90
2489;DHT22;1255;48.716;9.124;2022-12-01T09:18:25;2.80;99.90
2489;DHT22;1255;48.716;9.124;2022-12-01T09:20:53;2.80;99.90
2489;DHT22;1255;48.716;9.124;2022-12-01T09:23:20;2.80;99.90
2489;DHT22;1255;48.716;9.124;2022-12-01T09:25:48;2.80;99.90
2489;DHT22;1255;48.716;9.124;2022-12-01T09:28:16;2.90;99.90
2489;DHT22;1255;48.716;9.124;2022-12-01T09:30:44;2.90;99.90
2489;DHT22;1255;48.716;9.124;2022-12-01T09:33:11;3.00;99.90
2489;DHT22;1255;48.716;9.124;2022-12-01T09:35:38;3.00;99.90
2489;DHT22;1255;48.716;9.124;2022-12-01T09:38:05;3.00;99.90
2489;DHT22;1255;48.716;9.124;2022-12-01T09:40:34;3.00;99.90
2489;DHT22;1255;48.716;9.124;2022-12-01T09:43:05;3.00;99.90
2489;DHT22;1255;48.716;9.124;2022-12-01T09:45:36;3.00;99.90
2489;DHT22;1255;48.716;9.124;2022-12-01T09:48:12;3.00;99.90
2489;DHT22;1255;48.716;9.124;2022-12-01T09:50:43;3.00;99.90
2489;DHT22;1255;48.716;9.124;2022-12-01T09:53:14;2.90;99.90
2489;DHT22;1255;48.716;9.124;2022-12-01T09:55:43;2.90;99.90
2489;DHT22;1255;48.716;9.124;2022-12-01T09:58:15;3.00;99.90
2489;DHT22;1255;48.716;9.124;2022-12-01T10:00:45;3.00;99.90
2489;DHT22;1255;48.716;9.124;2022-12-01T10:03:20;3.00;99.90
2489;DHT22;1255;48.716;9.124;2022-12-01T10:05:53;3.10;99.90
2489;DHT22;1255;48.716;9.124;2022-12-01T10:08:23;3.10;99.90
2489;DHT22;1255;48.716;9.124;2022-12-01T10:10:53;3.00;99.90
2489;DHT22;1255;48.716;9.124;2022-12-01T10:13:23;3.00;99.90
2489;DHT22;1255;48.716;9.124;2022-12-01T10:15:58;3.00;99.90
2489;DHT22;1255;48.716;9.124;2022-12-01T10:18:36;3.00;99.90
2489;DHT22;1255;48.716;9.124;2022-12-01T10:21:13;3.00;99.90
2489;DHT22;1255;48.716;9.124;2022-12-01T10:23:52;3.10;99.90
2489;DHT22;1255;48.716;9.124;2022-12-01T10:26:30;3.20;99.90
2489;DHT22;1255;48.716;9.124;2022-12-01T10:29:08;3.20;99.90
2489;DHT22;1255;48.716;9.124;2022-12-01T10:31:45;3.20;99.90
2489;DHT22;1255;48.716;9.124;2022-12-01T10:34:16;3.10;99.90
2489;DHT22;1255;48.716;9.124;2022-12-01T10:36:43;3.20;99.90
2489;DHT22;1255;48.716;9.124;2022-12-01T10:39:16;3.20;99.90
2489;DHT22;1255;48.716;9.124;2022-12-01T10:41:45;3.20;99.90
2489;DHT22;1255;48.716;9.124;2022-12-01T10:44:13;3.20;99.90
2489;DHT22;1255;48.716;9.124;2022-12-01T10:46:45;3.20;99.90
2489;DHT22;1255;48.716;9.124;2022-12-01T10:49:14;3.30;99.90
2489;DHT22;1255;48.716;9.124;2022-12-01T10:51:55;3.30;99.90
2489;DHT22;1255;48.716;9.124;2022-12-01T10:54:31;3.40;99.90
2489;DHT22;1255;48.716;9.124;2022-12-01T10:56:58;3.40;99.90
2489;DHT22;1255;48.716;9.124;2022-12-01T10:59:30;3.40;99.90
2489;DHT22;1255;48.716;9.124;2022-12-01T11:02:00;3.40;99.90
2489;DHT22;1255;48.716;9.124;2022-12-01T11:04:36;3.40;99.90
2489;DHT22;1255;48.716;9.124;2022-12-01T11:07:17;3.30;99.90
2489;DHT22;1255;48.716;9.124;2022-12-01T11:09:53;3.40;99.90
2489;DHT22;1255;48.716;9.124;2022-12-01T11:12:22;3.50;99.90
2489;DHT22;1255;48.716;9.124;2022-12-01T11:14:51;3.60;99.90
2489;DHT22;1255;48.716;9.124;2022-12-01T11:17:29;3.60;99.90
2489;DHT22;1255;48.716;9.124;2022-12-01T11:19:57;3.60;99.90
2489;DHT22;1255;48.716;9.124;2022-12-01T11:22:27;3.60;99.90
2489;DHT22;1255;48.716;9.124;2022-12-01T11:25:00;3.60;99.90
2489;DHT22;1255;48.716;9.124;2022-12-01T11:27:30;3.70;99.90
2489;DHT22;1255;48.716;9.124;2022-12-01T11:30:01;3.70;99.90
2489;DHT22;1255;48.716;9.124;2022-12-01T11:32:32;3.80;99.90
2489;DHT22;1255;48.716;9.124;2022-12-01T11:35:02;3.80;99.90
2489;DHT22;1255;48.716;9.124;2022-12-01T11:37:32;3.80;99.90
2489;DHT22;1255;48.716;9.124;2022-12-01T11:40:07;3.80;99.90
2489;DHT22;1255;48.716;9.124;2022-12-01T11:42:34;3.80;99.90
2489;DHT22;1255;48.716;9.124;2022-12-01T11:45:05;3.80;99.90
2489;DHT22;1255;48.716;9.124;2022-12-01T11:47:34;3.80;99.90
2489;DHT22;1255;48.716;9.124;2022-12-01T11:50:06;3.80;99.90
2489;DHT22;1255;48.716;9.124;2022-12-01T11:52:48;3.80;99.90
2489;DHT22;1255;48.716;9.124;2022-12-01T11:55:19;3.70;99.90
2489;DHT22;1255;48.716;9.124;2022-12-01T11:57:48;3.70;99.90
2489;DHT22;1255;48.716;9.124;2022-12-01T12:00:18;3.70;99.90
2489;DHT22;1255;48.716;9.124;2022-12-01T12:02:58;3.80;99.90
2489;DHT22;1255;48.716;9.124;2022-12-01T12:05:42;3.80;99.90
2489;DHT22;1255;48.716;9.124;2022-12-01T12:08:15;3.80;99.90
2489;DHT22;1255;48.716;9.124;2022-12-01T12:10:51;3.80;99.90
2489;DHT22;1255;48.716;9.124;2022-12-01T12:13:37;3.80;99.90
2489;DHT22;1255;48.716;9.124;2022-12-01T12:16:11;3.80;99.90
2489;DHT22;1255;48.716;9.124;2022-12-01T12:18:51;3.80;99.90
2489;DHT22;1255;48.716;9.124;2022-12-01T12:21:30;3.90;99.90
2489;DHT22;1255;48.716;9.124;2022-12-01T12:24:25;3.90;99.90
2489;DHT22;1255;48.716;9.124;2022-12-01T12:26:59;3.90;99.90
2489;DHT22;1255;48.716;9.124;2022-12-01T12:29:42;3.90;99.90
2489;DHT22;1255;48.716;9.124;2022-12-01T12:32:29;3.90;99.90
2489;DHT22;1255;48.716;9.124;2022-12-01T12:35:06;3.90;99.90
2489;DHT22;1255;48.716;9.124;2022-12-01T12:37:41;3.90;99.90
2489;DHT22;1255;48.716;9.124;2022-12-01T12:40:36;3.90;99.90
2489;DHT22;1255;48.716;9.124;2022-12-01T12:43:20;4.00;99.90
2489;DHT22;1255;48.716;9.124;2022-12-01T12:45:58;4.00;99.90
2489;DHT22;1255;48.716;9.124;2022-12-01T12:48:37;3.90;99.90
2489;DHT22;1255;48.716;9.124;2022-12-01T12:51:13;4.00;99.90
2489;DHT22;1255;48.716;9.124;2022-12-01T12:53:45;4.00;99.90
2489;DHT22;1255;48.716;9.124;2022-12-01T12:56:15;4.10;99.90
2489;DHT22;1255;48.716;9.124;2022-12-01T12:58:52;4.00;99.90
2489;DHT22;1255;48.716;9.124;2022-12-01T13:01:22;4.00;99.90
2489;DHT22;1255;48.716;9.124;2022-12-01T13:03:54;4.00;99.90
2489;DHT22;1255;48.716;9.124;2022-12-01T13:06:26;4.00;99.90
2489;DHT22;1255;48.716;9.124;2022-12-01T13:08:55;3.90;99.90
2489;DHT22;1255;48.716;9.124;2022-12-01T13:11:28;3.90;99.90
2489;DHT22;1255;48.716;9.124;2022-12-01T13:13:59;3.90;99.90
2489;DHT22;1255;48.716;9.124;2022-12-01T13:16:34;3.90;99.90
2489;DHT22;1255;48.716;9.124;2022-12-01T13:19:06;3.90;99.90
2489;DHT22;1255;48.716;9.124;2022-12-01T13:21:42;3.90;99.90
2489;DHT22;1255;48.716;9.124;2022-12-01T13:24:11;3.90;99.90
2489;DHT22;1255;48.716;9.124;2022-12-01T13:26:40;3.90;99.90
2489;DHT22;1255;48.716;9.124;2022-12-01T13:29:13;3.90;99.90
2489;DHT22;1255;48.716;9.124;2022-12-01T13:31:44;4.00;99.90
2489;DHT22;1255;48.716;9.124;2022-12-01T13:34:23;4.00;99.90
2489;DHT22;1255;48.716;9.124;2022-12-01T13:36:54;4.00;99.90
2489;DHT22;1255;48.716;9.124;2022-12-01T13:39:26;4.00;99.90
2489;DHT22;1255;48.716;9.124;2022-12-01T13:42:02;4.10;99.90
2489;DHT22;1255;48.716;9.124;2022-12-01T13:44:33;4.10;99.90
2489;DHT22;1255;48.716;9.124;2022-12-01T13:47:04;4.10;99.90
2489;DHT22;1255;48.716;9.124;2022-12-01T13:49:51;4.00;99.90
2489;DHT22;1255;48.716;9.124;2022-12-01T13:52:31;4.00;99.90
2489;DHT22;1255;48.716;9.124;2022-12-01T13:55:02;4.00;99.90
2489;DHT22;1255;48.716;9.124;2022-12-01T13:57:31;4.00;99.90
2489;DHT22;1255;48.716;9.124;2022-12-01T14:00:18;4.00;99.90
2489;DHT22;1255;48.716;9.124;2022-12-01T14:05:54;4.00;99.90
2489;DHT22;1255;48.716;9.124;2022-12-01T14:08:24;4.00;99.90
2489;DHT22;1255;48.716;9.124;2022-12-01T14:10:53;4.00;99.90
2489;DHT22;1255;48.716;9.124;2022-12-01T14:13:22;4.00;99.90
2489;DHT22;1255;48.716;9.124;2022-12-01T14:15:54;4.00;99.90
2489;DHT22;1255;48.716;9.124;2022-12-01T14:18:29;4.00;99.90
2489;DHT22;1255;48.716;9.124;2022-12-01T14:20:58;4.00;99.90
2489;DHT22;1255;48.716;9.124;2022-12-01T14:23:28;4.00;99.90
2489;DHT22;1255;48.716;9.124;2022-12-01T14:26:03;3.90;99.90
2489;DHT22;1255;48.716;9.124;2022-12-01T14:29:06;3.90;99.90
2489;DHT22;1255;48.716;9.124;2022-12-01T14:32:17;3.80;99.90
2489;DHT22;1255;48.716;9.124;2022-12-01T14:34:53;3.70;99.90
2489;DHT22;1255;48.716;9.124;2022-12-01T14:37:24;3.70;99.90
2489;DHT22;1255;48.716;9.124;2022-12-01T14:39:57;3.70;99.90
2489;DHT22;1255;48.716;9.124;2022-12-01T14:42:31;3.70;99.90
2489;DHT22;1255;48.716;9.124;2022-12-01T14:45:21;3.60;99.90
2489;DHT22;1255;48.716;9.124;2022-12-01T14:47:55;3.60;99.90
2489;DHT22;1255;48.716;9.124;2022-12-01T14:53:03;3.50;99.90
2489;DHT22;1255;48.716;9.124;2022-12-01T14:55:36;3.50;99.90
2489;DHT22;1255;48.716;9.124;2022-12-01T14:58:07;3.50;99.90
2489;DHT22;1255;48.716;9.124;2022-12-01T15:00:55;3.60;99.90
2489;DHT22;1255;48.716;9.124;2022-12-01T15:03:27;3.60;99.90
2489;DHT22;1255;48.716;9.124;2022-12-01T15:05:55;3.50;99.90
2489;DHT22;1255;48.716;9.124;2022-12-01T15:08:23;3.50;99.90
2489;DHT22;1255;48.716;9.124;2022-12-01T15:10:54;3.60;99.90
2489;DHT22;1255;48.716;9.124;2022-12-01T15:13:23;3.60;99.90
2489;DHT22;1255;48.716;9.124;2022-12-01T15:15:54;3.70;99.90
2489;DHT22;1255;48.716;9.124;2022-12-01T15:18:25;3.70;99.90
2489;DHT22;1255;48.716;9.124;2022-12-01T15:20:57;3.70;99.90
2489;DHT22;1255;48.716;9.124;2022-12-01T15:23:25;3.60;99.90
2489;DHT22;1255;48.716;9.124;2022-12-01T15:25:56;3.60;99.90
2489;DHT22;1255;48.716;9.124;2022-12-01T15:28:31;3.60;99.90
2489;DHT22;1255;48.716;9.124;2022-12-01T15:31:04;3.60;99.90
2489;DHT22;1255;48.716;9.124;2022-12-01T15:33:34;3.60;99.90
2489;DHT22;1255;48.716;9.124;2022-12-01T15:36:04;3.60;99.90
2489;DHT22;1255;48.716;9.124;2022-12-01T15:38:35;3.60;99.90
2489;DHT22;1255;48.716;9.124;2022-12-01T15:41:05;3.60;99.90
2489;DHT22;1255;48.716;9.124;2022-12-01T15:43:35;3.50;99.90
2489;DHT22;1255;48.716;9.124;2022-12-01T15:46:11;3.50;99.90
2489;DHT22;1255;48.716;9.124;2022-12-01T15:48:38;3.60;99.90
2489;DHT22;1255;48.716;9.124;2022-12-01T15:51:10;3.60;99.90
2489;DHT22;1255;48.716;9.124;2022-12-01T15:53:40;3.60;99.90
2489;DHT22;1255;48.716;9.124;2022-12-01T15:56:13;3.60;99.90
2489;DHT22;1255;48.716;9.124;2022-12-01T15:58:43;3.60;99.90
2489;DHT22;1255;48.716;9.124;2022-12-01T16:01:12;3.60;99.90
2489;DHT22;1255;48.716;9.124;2022-12-01T16:03:52;3.60;99.90
2489;DHT22;1255;48.716;9.124;2022-12-01T16:06:23;3.60;99.90
2489;DHT22;1255;48.716;9.124;2022-12-01T16:08:56;3.60;99.90
2489;DHT22;1255;48.716;9.124;2022-12-01T16:11:26;3.60;99.90
2489;DHT22;1255;48.716;9.124;2022-12-01T16:13:58;3.60;99.90
2489;DHT22;1255;48.716;9.124;2022-12-01T16:16:43;3.50;99.90
2489;DHT22;1255;48.716;9.124;2022-12-01T16:19:24;3.50;99.90
2489;DHT22;1255;48.716;9.124;2022-12-01T16:21:53;3.50;99.90
2489;DHT22;1255;48.716;9.124;2022-12-01T16:24:25;3.40;99.90
2489;DHT22;1255;48.716;9.124;2022-12-01T16:26:56;3.40;99.90
2489;DHT22;1255;48.716;9.124;2022-12-01T16:29:26;3.40;99.90
2489;DHT22;1255;48.716;9.124;2022-12-01T16:31:55;3.40;99.90
2489;DHT22;1255;48.716;9.124;2022-12-01T16:34:23;3.50;99.90
2489;DHT22;1255;48.716;9.124;2022-12-01T16:36:50;3.50;99.90
2489;DHT22;1255;48.716;9.124;2022-12-01T16:39:17;3.50;99.90
2489;DHT22;1255;48.716;9.124;2022-12-01T16:41:44;3.50;99.90
2489;DHT22;1255;48.716;9.124;2022-12-01T16:44:14;3.50;99.90
2489;DHT22;1255;48.716;9.124;2022-12-01T16:46:43;3.50;99.90
2489;DHT22;1255;48.716;9.124;2022-12-01T16:49:12;3.50;99.90